Time;durP1;ratioP1;P1;durP2;ratioP2;P2;SDS_P1;SDS_P2;PMS_P1;PMS_P2;Temp;Humidity;BMP_temperature;BMP_pressure;BME280_temperature;BME280_humidity;BME280_pressure;Samples;Min_cycle;Max_cycle;Signal;HPM_P1;HPM_P2
2023/12/19 00:02:12;;;;;;;23.73;16.33;;;;;;;;;;5053432;28;20534;-84
2023/12/19 00:05:16;;;;;;;22.97;16.37;;;;;;;;;;5054053;28;21160;-85
2023/12/19 00:08:20;;;;;;;24.70;15.23;;;;;;;;;;5065214;28;21081;-86
2023/12/19 00:11:25;;;;;;;24.37;16.03;;;;;;;;;;5053595;28;20541;-85
2023/12/19 00:14:29;;;;;;;24.07;17.20;;;;;;;;;;5064893;28;21073;-84
2023/12/19 00:17:33;;;;;;;22.63;14.60;;;;;;;;;;5065201;28;20554;-84
2023/12/19 00:20:37;;;;;;;23.07;15.37;;;;;;;;;;5053212;28;20597;-84
2023/12/19 00:23:44;;;;;;;24.43;15.13;;;;;;;;;;5064546;28;20545;-84
2023/12/19 00:26:48;;;;;;;21.03;15.43;;;;;;;;;;5064236;28;20990;-84
2023/12/19 00:29:52;;;;;;;19.93;14.87;;;;;;;;;;5057256;28;20545;-84
2023/12/19 00:32:56;;;;;;;22.50;14.30;;;;;;;;;;5068283;28;20537;-85
2023/12/19 00:36:01;;;;;;;21.70;14.50;;;;;;;;;;5045652;28;20628;-85
2023/12/19 00:39:05;;;;;;;20.10;13.67;;;;;;;;;;5068230;28;20560;-84
2023/12/19 00:42:09;;;;;;;17.90;13.30;;;;;;;;;;5068225;28;20597;-84
2023/12/19 00:45:14;;;;;;;21.00;13.80;;;;;;;;;;5068386;28;20553;-84
2023/12/19 00:48:18;;;;;;;22.87;15.17;;;;;;;;;;5068097;28;20546;-85
2023/12/19 00:51:22;;;;;;;20.33;14.20;;;;;;;;;;5056654;28;20529;-84
2023/12/19 00:54:27;;;;;;;19.83;14.20;;;;;;;;;;5068229;28;20549;-84
2023/12/19 00:57:32;;;;;;;20.13;13.77;;;;;;;;;;5067968;28;20549;-84
2023/12/19 01:00:36;;;;;;;17.10;12.37;;;;;;;;;;5067925;28;20597;-85
2023/12/19 01:03:41;;;;;;;18.97;12.67;;;;;;;;;;5057921;28;20549;-84
2023/12/19 01:06:45;;;;;;;18.67;12.40;;;;;;;;;;5080450;28;20652;-84
2023/12/19 01:09:50;;;;;;;18.83;12.20;;;;;;;;;;5068083;28;20565;-85
2023/12/19 01:12:54;;;;;;;17.73;12.30;;;;;;;;;;5069026;28;20545;-85
2023/12/19 01:15:58;;;;;;;17.20;12.17;;;;;;;;;;5068029;28;20632;-85
2023/12/19 01:19:03;;;;;;;17.40;11.00;;;;;;;;;;5080984;28;20890;-86
2023/12/19 01:22:07;;;;;;;19.80;12.00;;;;;;;;;;5068761;28;20597;-87
2023/12/19 01:25:11;;;;;;;18.00;12.10;;;;;;;;;;5067843;28;20545;-88
2023/12/19 01:28:15;;;;;;;15.77;11.50;;;;;;;;;;5057052;28;20549;-87
2023/12/19 01:31:19;;;;;;;20.10;11.87;;;;;;;;;;5068011;28;20546;-87
2023/12/19 01:34:23;;;;;;;17.43;11.50;;;;;;;;;;5056748;28;20549;-87
2023/12/19 01:37:29;;;;;;;15.20;11.33;;;;;;;;;;5056503;28;20616;-87
2023/12/19 01:40:33;;;;;;;17.60;11.93;;;;;;;;;;5055973;28;20601;-86
2023/12/19 01:43:38;;;;;;;19.47;12.20;;;;;;;;;;5068196;28;20545;-87
2023/12/19 01:46:42;;;;;;;16.27;10.73;;;;;;;;;;5069119;28;20624;-87
2023/12/19 01:49:46;;;;;;;14.43;10.93;;;;;;;;;;5068932;28;20541;-88
2023/12/19 01:52:57;;;;;;;17.30;11.60;;;;;;;;;;5066327;28;20537;-87
2023/12/19 01:56:01;;;;;;;15.20;10.83;;;;;;;;;;5078757;28;20632;-86
2023/12/19 01:59:06;;;;;;;15.93;10.43;;;;;;;;;;5066753;28;20550;-87
2023/12/19 02:02:10;;;;;;;14.10;9.83;;;;;;;;;;5066385;28;20601;-87
2023/12/19 02:05:15;;;;;;;15.10;10.77;;;;;;;;;;5079018;28;20910;-86
2023/12/19 02:08:21;;;;;;;15.53;11.07;;;;;;;;;;5055670;28;20542;-86
2023/12/19 02:11:25;;;;;;;15.07;10.77;;;;;;;;;;5078607;28;20541;-87
2023/12/19 02:14:29;;;;;;;16.37;9.50;;;;;;;;;;5044014;28;20907;-87
2023/12/19 02:17:34;;;;;;;13.10;9.33;;;;;;;;;;5055513;28;20550;-87
2023/12/19 02:20:38;;;;;;;13.93;9.33;;;;;;;;;;5055067;28;20542;-86
2023/12/19 02:23:42;;;;;;;13.00;8.43;;;;;;;;;;5066492;28;20538;-86
2023/12/19 02:26:47;;;;;;;10.83;7.87;;;;;;;;;;5054786;28;20617;-87
2023/12/19 02:29:51;;;;;;;13.00;8.90;;;;;;;;;;5066697;28;20546;-87
2023/12/19 02:32:58;;;;;;;14.10;8.23;;;;;;;;;;5043109;28;21062;-86
2023/12/19 02:36:02;;;;;;;12.33;7.43;;;;;;;;;;5042864;28;20617;-87
2023/12/19 02:39:06;;;;;;;10.83;7.33;;;;;;;;;;5054768;28;20542;-86
2023/12/19 02:42:10;;;;;;;11.23;7.47;;;;;;;;;;5054470;28;20586;-86
2023/12/19 02:45:15;;;;;;;11.00;7.10;;;;;;;;;;5078169;28;20557;-87
2023/12/19 02:48:26;;;;;;;7.93;5.60;;;;;;;;;;5054425;28;20554;-87
2023/12/19 02:51:30;;;;;;;9.17;5.60;;;;;;;;;;5077548;28;20535;-88
2023/12/19 02:54:36;;;;;;;8.07;5.27;;;;;;;;;;5053874;28;20605;-87
2023/12/19 02:57:40;;;;;;;7.27;5.03;;;;;;;;;;5054614;28;20542;-86
2023/12/19 03:00:44;;;;;;;8.40;5.10;;;;;;;;;;5042601;28;20542;-87
2023/12/19 03:03:49;;;;;;;5.73;4.33;;;;;;;;;;5054665;28;20542;-87
2023/12/19 03:06:53;;;;;;;13.60;8.23;;;;;;;;;;5043939;28;20645;-87
2023/12/19 03:09:57;;;;;;;15.73;9.37;;;;;;;;;;5042627;28;20554;-86
2023/12/19 03:13:02;;;;;;;13.63;9.77;;;;;;;;;;5065594;28;20563;-86
2023/12/19 03:16:06;;;;;;;17.20;9.40;;;;;;;;;;5065696;28;20655;-87
2023/12/19 03:19:11;;;;;;;13.93;10.40;;;;;;;;;;5054071;28;20896;-87
2023/12/19 03:22:15;;;;;;;14.50;9.57;;;;;;;;;;5065137;28;20605;-87
2023/12/19 03:25:19;;;;;;;15.23;9.40;;;;;;;;;;5064842;28;20542;-86
2023/12/19 03:28:23;;;;;;;14.37;8.87;;;;;;;;;;5053742;28;20539;-87
2023/12/19 03:31:28;;;;;;;10.73;8.03;;;;;;;;;;5042677;28;20877;-87
2023/12/19 03:34:35;;;;;;;14.20;7.93;;;;;;;;;;5054180;28;20545;-87
2023/12/19 03:37:39;;;;;;;10.67;8.07;;;;;;;;;;5053956;28;20558;-87
2023/12/19 03:40:44;;;;;;;11.17;7.47;;;;;;;;;;5053740;28;20881;-87
2023/12/19 03:43:48;;;;;;;12.93;7.53;;;;;;;;;;5065771;28;20558;-87
2023/12/19 03:46:52;;;;;;;10.43;8.30;;;;;;;;;;5064898;28;20626;-87
2023/12/19 03:49:57;;;;;;;16.27;9.00;;;;;;;;;;5064796;28;20535;-87
2023/12/19 03:53:01;;;;;;;10.97;8.13;;;;;;;;;;5077722;28;20535;-87
2023/12/19 03:56:06;;;;;;;13.13;8.57;;;;;;;;;;5064749;28;20621;-87
2023/12/19 03:59:10;;;;;;;11.40;8.20;;;;;;;;;;5043182;28;20561;-87
2023/12/19 04:02:15;;;;;;;11.03;7.43;;;;;;;;;;5055164;28;20598;-87
2023/12/19 04:05:20;;;;;;;11.73;7.33;;;;;;;;;;5058122;28;20542;-87
2023/12/19 04:08:24;;;;;;;10.13;6.73;;;;;;;;;;5057174;28;20539;-87
2023/12/19 04:11:28;;;;;;;11.13;7.03;;;;;;;;;;5068784;28;20549;-86
2023/12/19 04:14:33;;;;;;;12.77;8.43;;;;;;;;;;5068280;28;20549;-86
2023/12/19 04:17:37;;;;;;;10.93;7.53;;;;;;;;;;5045762;28;20539;-87
2023/12/19 04:20:42;;;;;;;11.37;7.47;;;;;;;;;;5057798;28;20538;-87
2023/12/19 04:23:46;;;;;;;12.63;6.93;;;;;;;;;;5068450;28;20527;-88
2023/12/19 04:26:52;;;;;;;10.77;7.03;;;;;;;;;;5057166;28;20625;-87
2023/12/19 04:29:57;;;;;;;9.30;6.47;;;;;;;;;;5068324;28;20538;-87
2023/12/19 04:33:02;;;;;;;8.63;6.07;;;;;;;;;;5068108;28;20542;-87
2023/12/19 04:36:08;;;;;;;9.67;5.77;;;;;;;;;;5067906;28;20967;-87
2023/12/19 04:39:13;;;;;;;7.63;5.83;;;;;;;;;;5056576;28;21086;-87
2023/12/19 04:42:19;;;;;;;6.73;5.17;;;;;;;;;;5056743;28;21165;-87
2023/12/19 04:45:23;;;;;;;10.93;5.63;;;;;;;;;;5080213;28;20538;-86
2023/12/19 04:48:31;;;;;;;10.00;5.30;;;;;;;;;;5067622;28;20542;-87
2023/12/19 04:51:36;;;;;;;5.77;4.30;;;;;;;;;;5045356;28;20534;-87
2023/12/19 04:54:40;;;;;;;6.37;4.10;;;;;;;;;;5068146;28;20542;-87
2023/12/19 04:57:44;;;;;;;7.33;4.40;;;;;;;;;;5067813;28;20542;-87
2023/12/19 05:00:51;;;;;;;6.20;4.77;;;;;;;;;;5080066;28;20538;-87
2023/12/19 05:03:56;;;;;;;5.20;4.40;;;;;;;;;;5067422;28;20531;-87
2023/12/19 05:07:00;;;;;;;5.73;4.23;;;;;;;;;;5055352;28;21221;-87
2023/12/19 05:10:04;;;;;;;7.17;4.87;;;;;;;;;;5055200;28;20554;-87
2023/12/19 05:13:08;;;;;;;12.07;6.30;;;;;;;;;;5067269;28;20538;-87
2023/12/19 05:16:17;;;;;;;10.83;6.03;;;;;;;;;;5066919;28;20626;-87
2023/12/19 05:19:23;;;;;;;8.67;5.23;;;;;;;;;;5056185;28;20876;-87
2023/12/19 05:22:28;;;;;;;8.70;5.43;;;;;;;;;;5055691;28;20927;-87
2023/12/19 05:25:38;;;;;;;10.10;5.70;;;;;;;;;;5066397;28;20625;-86
2023/12/19 05:28:42;;;;;;;9.63;5.73;;;;;;;;;;5067330;28;20563;-87
2023/12/19 05:31:47;;;;;;;9.93;5.97;;;;;;;;;;5055827;28;20538;-86
2023/12/19 05:34:51;;;;;;;8.80;6.00;;;;;;;;;;5079597;28;20868;-87
2023/12/19 05:37:55;;;;;;;6.97;5.60;;;;;;;;;;5066447;28;20538;-87
2023/12/19 05:40:59;;;;;;;7.63;5.27;;;;;;;;;;5066468;28;20542;-86
2023/12/19 05:44:04;;;;;;;7.80;5.23;;;;;;;;;;5078817;28;20531;-86
2023/12/19 05:47:08;;;;;;;7.87;5.40;;;;;;;;;;5043851;28;20617;-87
2023/12/19 05:50:12;;;;;;;7.77;4.97;;;;;;;;;;5055031;28;20542;-87
2023/12/19 05:53:16;;;;;;;9.43;5.50;;;;;;;;;;5066631;28;21078;-86
2023/12/19 05:56:20;;;;;;;7.87;5.27;;;;;;;;;;5066139;28;20617;-87
2023/12/19 05:59:25;;;;;;;9.70;5.70;;;;;;;;;;5078590;28;20550;-87
2023/12/19 06:02:28;;;;;;;7.00;5.10;;;;;;;;;;5066138;28;21125;-87
2023/12/19 06:05:33;;;;;;;7.63;4.73;;;;;;;;;;5054714;28;20637;-87
2023/12/19 06:08:37;;;;;;;7.17;5.20;;;;;;;;;;5054334;28;20542;-83
2023/12/19 06:11:42;;;;;;;6.97;5.30;;;;;;;;;;5079580;28;20546;-87
2023/12/19 06:14:46;;;;;;;7.73;5.60;;;;;;;;;;5068405;28;20907;-87
2023/12/19 06:17:50;;;;;;;7.17;5.50;;;;;;;;;;5067393;28;20538;-88
2023/12/19 06:20:59;;;;;;;7.37;4.70;;;;;;;;;;5066293;28;21081;-87
2023/12/19 06:24:04;;;;;;;7.80;4.83;;;;;;;;;;5066938;28;20531;-86
2023/12/19 06:27:08;;;;;;;7.13;5.17;;;;;;;;;;5054439;28;20613;-87
2023/12/19 06:30:12;;;;;;;6.30;4.93;;;;;;;;;;5067084;28;20554;-87
2023/12/19 06:33:17;;;;;;;7.10;4.93;;;;;;;;;;5053629;28;20550;-87
2023/12/19 06:36:31;;;;;;;16.03;8.87;;;;;;;;;;5065671;28;20618;-87
2023/12/19 06:39:36;;;;;;;9.47;6.37;;;;;;;;;;5065155;28;20550;-87
2023/12/19 06:42:41;;;;;;;9.47;5.40;;;;;;;;;;5053734;28;20606;-87
2023/12/19 06:45:53;;;;;;;8.20;5.10;;;;;;;;;;5064469;28;20618;-87
2023/12/19 06:49:01;;;;;;;9.37;5.97;;;;;;;;;;5064776;28;20554;-87
2023/12/19 06:52:05;;;;;;;11.73;7.00;;;;;;;;;;5042156;28;20550;-89
2023/12/19 06:55:13;;;;;;;12.90;6.93;;;;;;;;;;5063482;28;20546;-87
2023/12/19 06:58:17;;;;;;;9.63;6.30;;;;;;;;;;5051935;28;20896;-88
2023/12/19 07:01:25;;;;;;;22.53;12.83;;;;;;;;;;5050651;28;20589;-87
2023/12/19 07:04:31;;;;;;;21.20;12.80;;;;;;;;;;5062771;28;20546;-87
2023/12/19 07:07:36;;;;;;;16.73;10.83;;;;;;;;;;5032191;28;20609;-87
2023/12/19 07:10:44;;;;;;;19.90;9.97;;;;;;;;;;5021955;28;20626;-87
2023/12/19 07:13:53;;;;;;;20.43;11.50;;;;;;;;;;5022198;28;20559;-86
2023/12/19 07:17:01;;;;;;;7.73;5.17;;;;;;;;;;5042836;28;20625;-88
2023/12/19 07:20:11;;;;;;;9.47;5.20;;;;;;;;;;5022019;28;21131;-86
2023/12/19 07:23:15;;;;;;;8.53;5.30;;;;;;;;;;5056793;28;20595;-86
2023/12/19 07:26:24;;;;;;;6.50;4.77;;;;;;;;;;5033552;28;21198;-86
2023/12/19 07:29:29;;;;;;;7.17;4.57;;;;;;;;;;5058298;28;20555;-86
2023/12/19 07:32:33;;;;;;;8.50;6.57;;;;;;;;;;5033845;28;20531;-87
2023/12/19 07:35:37;;;;;;;15.40;9.03;;;;;;;;;;5049482;28;20645;-86
2023/12/19 07:38:42;;;;;;;19.83;12.53;;;;;;;;;;5065439;28;20542;-86
2023/12/19 07:41:46;;;;;;;21.53;10.77;;;;;;;;;;5065619;28;20542;-86
2023/12/19 07:44:51;;;;;;;10.73;7.07;;;;;;;;;;5053211;28;21090;-87
2023/12/19 07:48:10;;;;;;;9.63;6.87;;;;;;;;;;5052850;28;20545;-86
2023/12/19 07:55:31;;;;;;;8.93;5.40;;;;;;;;;;5083341;28;20629;-88
2023/12/19 07:58:36;;;;;;;8.07;5.73;;;;;;;;;;5066030;28;20542;-85
2023/12/19 08:01:48;;;;;;;7.63;5.57;;;;;;;;;;5064423;28;20543;-85
2023/12/19 08:04:56;;;;;;;9.77;5.40;;;;;;;;;;5063476;28;20531;-85
2023/12/19 08:08:02;;;;;;;9.43;5.70;;;;;;;;;;5032098;28;21091;-85
2023/12/19 08:11:07;;;;;;;10.10;5.63;;;;;;;;;;5043457;28;20544;-87
2023/12/19 08:14:18;;;;;;;10.17;5.73;;;;;;;;;;5033819;28;20621;-88
2023/12/19 08:17:22;;;;;;;10.23;5.77;;;;;;;;;;5045661;28;20629;-86
2023/12/19 08:20:26;;;;;;;6.87;5.10;;;;;;;;;;5046040;28;20543;-86
2023/12/19 08:23:31;;;;;;;10.73;5.53;;;;;;;;;;5056971;28;20595;-84
2023/12/19 08:26:38;;;;;;;6.63;5.07;;;;;;;;;;5044983;28;20622;-85
2023/12/19 08:29:44;;;;;;;7.03;4.40;;;;;;;;;;5032799;28;20536;-86
2023/12/19 08:32:48;;;;;;;6.57;4.43;;;;;;;;;;5045074;28;20539;-85
2023/12/19 08:35:52;;;;;;;7.57;4.77;;;;;;;;;;5051762;28;20641;-85
2023/12/19 08:38:57;;;;;;;6.93;5.10;;;;;;;;;;5077526;28;20534;-85
2023/12/19 08:42:01;;;;;;;7.07;4.73;;;;;;;;;;5065653;28;21070;-85
2023/12/19 08:45:05;;;;;;;5.17;3.70;;;;;;;;;;5053778;28;20538;-85
2023/12/19 08:48:12;;;;;;;7.83;4.47;;;;;;;;;;5078910;28;20531;-85
2023/12/19 08:51:17;;;;;;;8.23;4.97;;;;;;;;;;5059340;28;21101;-85
2023/12/19 08:54:21;;;;;;;9.63;5.60;;;;;;;;;;5070336;28;20530;-85
2023/12/19 08:57:25;;;;;;;12.67;6.83;;;;;;;;;;5028383;28;20626;-87
2023/12/19 09:00:29;;;;;;;14.80;7.33;;;;;;;;;;5050393;28;20559;-87
2023/12/19 09:03:36;;;;;;;14.50;8.30;;;;;;;;;;5059292;28;20625;-87
2023/12/19 09:06:41;;;;;;;12.73;7.30;;;;;;;;;;5075458;28;20648;-87
2023/12/19 09:09:47;;;;;;;10.67;6.77;;;;;;;;;;5063509;28;20558;-87
2023/12/19 09:12:51;;;;;;;9.77;6.93;;;;;;;;;;5063396;28;20594;-86
2023/12/19 09:15:56;;;;;;;9.37;6.20;;;;;;;;;;5074029;28;20622;-87
2023/12/19 09:19:09;;;;;;;8.53;5.60;;;;;;;;;;5062823;28;20542;-86
2023/12/19 09:22:13;;;;;;;9.17;5.53;;;;;;;;;;5064932;28;20542;-87
2023/12/19 09:25:47;;;;;;;8.73;5.80;;;;;;;;;;5076025;28;21074;-88
2023/12/19 09:28:55;;;;;;;9.70;6.77;;;;;;;;;;5063081;28;21137;-88
2023/12/19 09:32:01;;;;;;;11.17;5.87;;;;;;;;;;5073382;28;20542;-88
2023/12/19 09:35:06;;;;;;;10.50;6.40;;;;;;;;;;5054357;28;20551;-88
2023/12/19 09:38:10;;;;;;;13.17;6.23;;;;;;;;;;5066299;28;20543;-88
2023/12/19 09:41:15;;;;;;;11.77;6.43;;;;;;;;;;5042402;28;20543;-87
2023/12/19 09:44:19;;;;;;;9.63;5.97;;;;;;;;;;5042497;28;20595;-88
2023/12/19 09:47:24;;;;;;;10.83;6.27;;;;;;;;;;5041650;28;20615;-88
2023/12/19 09:50:29;;;;;;;10.40;5.87;;;;;;;;;;5079130;28;20586;-88
2023/12/19 09:53:34;;;;;;;8.47;6.63;;;;;;;;;;5073538;28;20538;-88
2023/12/19 09:56:39;;;;;;;10.70;7.03;;;;;;;;;;5061489;28;20618;-87
2023/12/19 09:59:45;;;;;;;10.40;6.23;;;;;;;;;;5060759;28;20612;-89
2023/12/19 10:02:51;;;;;;;8.17;6.13;;;;;;;;;;5060366;28;20183;-87
2023/12/19 10:05:59;;;;;;;10.37;6.77;;;;;;;;;;5060424;28;20219;-87
2023/12/19 10:09:03;;;;;;;16.20;9.97;;;;;;;;;;5085237;28;20617;-88
2023/12/19 10:12:10;;;;;;;52.43;23.57;;;;;;;;;;5048703;28;20175;-89
2023/12/19 10:15:17;;;;;;;25.17;13.43;;;;;;;;;;5059982;28;20188;-88
2023/12/19 10:18:28;;;;;;;15.17;8.43;;;;;;;;;;5071433;28;20183;-87
2023/12/19 10:21:32;;;;;;;10.33;6.30;;;;;;;;;;5048672;28;20176;-87
2023/12/19 10:24:38;;;;;;;7.70;5.27;;;;;;;;;;5070937;28;20208;-88
2023/12/19 10:27:42;;;;;;;12.13;7.00;;;;;;;;;;5060007;28;20212;-89
2023/12/19 10:30:46;;;;;;;8.80;5.10;;;;;;;;;;5059516;28;20179;-88
2023/12/19 10:33:55;;;;;;;6.07;3.30;;;;;;;;;;5070670;28;20179;-88
2023/12/19 10:37:10;;;;;;;4.40;3.23;;;;;;;;;;5046905;28;20207;-89
2023/12/19 10:40:19;;;;;;;3.77;2.90;;;;;;;;;;5058504;28;20183;-88
2023/12/19 10:43:23;;;;;;;3.57;2.50;;;;;;;;;;5081149;28;20207;-88
2023/12/19 10:46:29;;;;;;;3.67;2.13;;;;;;;;;;5069541;28;20219;-88
2023/12/19 10:49:38;;;;;;;2.37;1.90;;;;;;;;;;5057686;28;20179;-88
2023/12/19 10:52:44;;;;;;;2.77;2.10;;;;;;;;;;5081329;28;20183;-89
2023/12/19 10:55:51;;;;;;;3.30;2.43;;;;;;;;;;5068683;28;20215;-89
2023/12/19 10:58:58;;;;;;;2.70;2.03;;;;;;;;;;5068094;28;20213;-89
2023/12/19 11:02:10;;;;;;;2.70;2.00;;;;;;;;;;5079908;28;20183;-89
2023/12/19 11:05:46;;;;;;;2.43;1.93;;;;;;;;;;5055537;28;20204;-88
2023/12/19 11:08:55;;;;;;;2.37;2.10;;;;;;;;;;5056371;28;20171;-88
2023/12/19 11:11:59;;;;;;;3.57;2.57;;;;;;;;;;5054657;28;20171;-89
2023/12/19 11:15:05;;;;;;;2.93;2.20;;;;;;;;;;5055361;28;20175;-87
2023/12/19 11:18:20;;;;;;;4.60;2.87;;;;;;;;;;5066825;28;20175;-89
2023/12/19 11:21:56;;;;;;;3.90;3.03;;;;;;;;;;5054208;28;20175;-89
2023/12/19 11:25:09;;;;;;;5.63;3.53;;;;;;;;;;5054243;28;20207;-88
2023/12/19 11:28:14;;;;;;;6.97;3.60;;;;;;;;;;5066711;28;20175;-89
2023/12/19 11:31:31;;;;;;;7.03;3.90;;;;;;;;;;5078530;28;20183;-88
2023/12/19 11:34:35;;;;;;;5.03;4.30;;;;;;;;;;5066467;28;20172;-88
2023/12/19 11:37:46;;;;;;;5.47;4.20;;;;;;;;;;5078432;28;20179;-88
2023/12/19 11:40:56;;;;;;;5.93;4.10;;;;;;;;;;5065470;28;20179;-88
2023/12/19 11:44:01;;;;;;;6.27;4.03;;;;;;;;;;5065258;28;20542;-89
2023/12/19 11:47:18;;;;;;;5.43;4.00;;;;;;;;;;5065158;28;20219;-88
2023/12/19 11:50:44;;;;;;;6.23;3.63;;;;;;;;;;5066474;28;20179;-87
2023/12/19 11:53:49;;;;;;;7.67;3.90;;;;;;;;;;5077393;28;20175;-88
2023/12/19 11:56:58;;;;;;;5.63;3.77;;;;;;;;;;5064403;28;20211;-88
2023/12/19 12:00:06;;;;;;;4.30;3.47;;;;;;;;;;5052543;28;20176;-89
2023/12/19 12:03:25;;;;;;;5.33;3.43;;;;;;;;;;5076388;28;20171;-88
2023/12/19 12:06:29;;;;;;;4.60;3.60;;;;;;;;;;5053256;28;20219;-88
2023/12/19 12:09:33;;;;;;;4.30;3.50;;;;;;;;;;5064623;28;20183;-88
2023/12/19 12:12:42;;;;;;;9.73;3.70;;;;;;;;;;5064101;28;20188;-89
2023/12/19 12:15:45;;;;;;;5.20;3.60;;;;;;;;;;5064399;28;20207;-88
2023/12/19 12:18:50;;;;;;;4.60;3.67;;;;;;;;;;5064470;28;20183;-88
2023/12/19 12:21:54;;;;;;;4.90;4.27;;;;;;;;;;5041082;28;20180;-89
2023/12/19 12:25:01;;;;;;;4.97;3.60;;;;;;;;;;5078530;28;20211;-88
2023/12/19 12:28:11;;;;;;;6.87;3.70;;;;;;;;;;5068474;28;20179;-88
2023/12/19 12:31:16;;;;;;;9.80;3.80;;;;;;;;;;5056459;28;20640;-88
2023/12/19 12:34:21;;;;;;;5.00;3.50;;;;;;;;;;5067805;28;20179;-88
2023/12/19 12:37:26;;;;;;;5.57;3.80;;;;;;;;;;5068531;28;20688;-88
2023/12/19 12:40:30;;;;;;;4.43;3.00;;;;;;;;;;5057132;28;20179;-88
2023/12/19 12:43:50;;;;;;;4.53;3.33;;;;;;;;;;5068471;28;20183;-88
2023/12/19 12:46:54;;;;;;;4.83;3.50;;;;;;;;;;5067621;28;20211;-88
2023/12/19 12:50:06;;;;;;;6.23;3.27;;;;;;;;;;5068172;28;20184;-88
2023/12/19 12:53:13;;;;;;;4.27;3.20;;;;;;;;;;5056043;28;20518;-88
2023/12/19 12:56:18;;;;;;;6.47;3.23;;;;;;;;;;5067045;28;20219;-88
2023/12/19 12:59:25;;;;;;;4.10;3.17;;;;;;;;;;5067105;28;20176;-87
2023/12/19 13:02:35;;;;;;;5.37;3.10;;;;;;;;;;5079289;28;20180;-88
2023/12/19 13:05:46;;;;;;;6.43;3.43;;;;;;;;;;5079112;28;20227;-88
2023/12/19 13:08:51;;;;;;;4.57;3.20;;;;;;;;;;5078981;28;20179;-88
2023/12/19 13:11:58;;;;;;;6.63;3.97;;;;;;;;;;5044270;28;20180;-89
2023/12/19 13:15:21;;;;;;;5.00;3.27;;;;;;;;;;5044595;28;20183;-88
2023/12/19 13:18:25;;;;;;;4.53;3.70;;;;;;;;;;5066385;28;20179;-88
2023/12/19 13:21:29;;;;;;;4.63;3.90;;;;;;;;;;5066521;28;20179;-88
2023/12/19 13:24:33;;;;;;;5.40;4.17;;;;;;;;;;5077795;28;20211;-87
2023/12/19 13:27:37;;;;;;;7.27;4.80;;;;;;;;;;5054915;28;20183;-87
2023/12/19 13:30:42;;;;;;;6.80;4.77;;;;;;;;;;5055173;28;20632;-88
2023/12/19 13:33:47;;;;;;;12.70;4.37;;;;;;;;;;5054714;28;20184;-88
2023/12/19 13:36:51;;;;;;;7.40;4.90;;;;;;;;;;5078449;28;20211;-87
2023/12/19 13:39:57;;;;;;;7.77;4.70;;;;;;;;;;5054850;28;20180;-87
2023/12/19 13:43:02;;;;;;;7.40;5.17;;;;;;;;;;5065546;28;20183;-87
2023/12/19 13:46:25;;;;;;;10.37;6.40;;;;;;;;;;5056259;28;20216;-87
2023/12/19 13:49:47;;;;;;;8.47;6.43;;;;;;;;;;5058772;28;20522;-87
2023/12/19 13:52:52;;;;;;;9.67;6.67;;;;;;;;;;5049082;28;20196;-86
2023/12/19 13:55:56;;;;;;;7.80;6.00;;;;;;;;;;5060622;28;20215;-87
2023/12/19 13:59:03;;;;;;;9.33;6.90;;;;;;;;;;5044731;28;20176;-87
2023/12/19 14:02:07;;;;;;;11.93;7.30;;;;;;;;;;5058230;28;20181;-87
2023/12/19 14:05:12;;;;;;;9.10;6.67;;;;;;;;;;5034025;28;20208;-87
2023/12/19 14:08:18;;;;;;;10.17;7.23;;;;;;;;;;5022413;28;20199;-88
2023/12/19 14:11:22;;;;;;;9.50;6.73;;;;;;;;;;5045252;28;20530;-87
2023/12/19 14:14:27;;;;;;;10.40;7.60;;;;;;;;;;5056466;28;20176;-87
2023/12/19 14:17:31;;;;;;;9.63;7.60;;;;;;;;;;5047086;28;20658;-87
2023/12/19 14:20:36;;;;;;;8.93;7.40;;;;;;;;;;5035307;28;20180;-87
2023/12/19 14:23:40;;;;;;;8.60;6.90;;;;;;;;;;5034770;28;20182;-88
2023/12/19 14:26:45;;;;;;;11.23;7.90;;;;;;;;;;5057610;28;20696;-87
2023/12/19 14:29:50;;;;;;;9.67;7.63;;;;;;;;;;5045730;28;20172;-87
2023/12/19 14:32:55;;;;;;;8.23;6.80;;;;;;;;;;5022987;28;20180;-88
2023/12/19 14:35:59;;;;;;;10.37;7.17;;;;;;;;;;5034317;28;20216;-87
2023/12/19 14:39:11;;;;;;;10.63;6.63;;;;;;;;;;5034254;28;20180;-87
2023/12/19 14:42:15;;;;;;;13.17;6.93;;;;;;;;;;5034148;28;20176;-88
2023/12/19 14:45:19;;;;;;;9.80;7.80;;;;;;;;;;5045094;28;20220;-87
2023/12/19 14:48:23;;;;;;;16.13;8.00;;;;;;;;;;5056844;28;20180;-87
2023/12/19 14:51:28;;;;;;;8.13;6.20;;;;;;;;;;5058202;28;20207;-88
2023/12/19 14:54:32;;;;;;;11.33;7.17;;;;;;;;;;5064612;28;20175;-88
2023/12/19 14:57:36;;;;;;;9.43;7.00;;;;;;;;;;5076396;28;20180;-88
2023/12/19 15:00:40;;;;;;;8.13;6.37;;;;;;;;;;5052717;28;20175;-88
2023/12/19 15:03:47;;;;;;;11.73;8.10;;;;;;;;;;5064111;28;20183;-87
2023/12/19 15:06:51;;;;;;;12.73;8.80;;;;;;;;;;5052161;28;20219;-87
2023/12/19 15:09:55;;;;;;;13.80;9.50;;;;;;;;;;5076088;28;20183;-87
2023/12/19 15:13:00;;;;;;;14.50;9.43;;;;;;;;;;5063807;28;20180;-87
2023/12/19 15:16:04;;;;;;;12.83;8.73;;;;;;;;;;5052208;28;20548;-87
2023/12/19 15:19:08;;;;;;;12.90;8.50;;;;;;;;;;5051674;28;20179;-88
2023/12/19 15:22:12;;;;;;;12.00;8.23;;;;;;;;;;5054490;28;20620;-86
2023/12/19 15:25:19;;;;;;;13.77;8.27;;;;;;;;;;5053952;28;20211;-86
2023/12/19 15:28:24;;;;;;;10.60;8.07;;;;;;;;;;5077440;28;20184;-86
2023/12/19 15:31:28;;;;;;;13.30;7.17;;;;;;;;;;5054745;28;20176;-86
2023/12/19 15:34:32;;;;;;;9.70;6.90;;;;;;;;;;5066271;28;20179;-86
2023/12/19 15:37:36;;;;;;;10.60;7.53;;;;;;;;;;5066208;28;20179;-86
2023/12/19 15:40:44;;;;;;;12.63;8.50;;;;;;;;;;5078254;28;20184;-86
2023/12/19 15:43:48;;;;;;;13.23;8.27;;;;;;;;;;5054974;28;20628;-85
2023/12/19 15:46:53;;;;;;;26.17;12.13;;;;;;;;;;5054187;28;20211;-86
2023/12/19 15:49:57;;;;;;;22.10;12.13;;;;;;;;;;5065967;28;20175;-85
2023/12/19 15:53:02;;;;;;;29.27;12.90;;;;;;;;;;5054963;28;20195;-85
2023/12/19 15:56:06;;;;;;;20.47;11.33;;;;;;;;;;5055300;28;20218;-86
2023/12/19 15:59:10;;;;;;;15.50;9.60;;;;;;;;;;5069577;28;20187;-85
2023/12/19 16:02:17;;;;;;;14.07;9.43;;;;;;;;;;5070555;28;20176;-85
2023/12/19 16:05:22;;;;;;;13.97;8.83;;;;;;;;;;5070634;28;20207;-85
2023/12/19 16:08:26;;;;;;;15.43;8.40;;;;;;;;;;5083925;28;20176;-85
2023/12/19 16:11:34;;;;;;;17.40;9.27;;;;;;;;;;5059738;28;20187;-86
2023/12/19 16:14:40;;;;;;;12.43;8.77;;;;;;;;;;5069912;28;20179;-85
2023/12/19 16:17:44;;;;;;;12.63;8.87;;;;;;;;;;5081537;28;20188;-86
2023/12/19 16:20:52;;;;;;;19.20;7.93;;;;;;;;;;5057935;28;20187;-86
2023/12/19 16:23:57;;;;;;;13.17;8.17;;;;;;;;;;5069407;28;20183;-86
2023/12/19 16:27:01;;;;;;;10.43;7.37;;;;;;;;;;5068890;28;20207;-85
2023/12/19 16:30:06;;;;;;;11.77;6.93;;;;;;;;;;5068701;28;20179;-85
2023/12/19 16:33:11;;;;;;;10.23;7.27;;;;;;;;;;5068927;28;20184;-85
2023/12/19 16:36:15;;;;;;;9.53;6.53;;;;;;;;;;5069250;28;20237;-85
2023/12/19 16:39:20;;;;;;;10.73;7.17;;;;;;;;;;5059039;28;20187;-85
2023/12/19 16:42:24;;;;;;;12.93;7.23;;;;;;;;;;5077010;28;20183;-85
2023/12/19 16:45:31;;;;;;;10.83;7.00;;;;;;;;;;5059436;28;20227;-85
2023/12/19 16:48:35;;;;;;;9.50;7.10;;;;;;;;;;5059011;28;20187;-85
2023/12/19 16:51:39;;;;;;;13.20;7.87;;;;;;;;;;5058035;28;20632;-85
2023/12/19 16:54:52;;;;;;;14.10;8.27;;;;;;;;;;5080294;28;20184;-88
2023/12/19 16:58:04;;;;;;;16.33;8.40;;;;;;;;;;5068091;28;20176;-88
2023/12/19 17:01:27;;;;;;;14.33;8.83;;;;;;;;;;5071865;28;20199;-85
2023/12/19 17:04:31;;;;;;;14.90;8.30;;;;;;;;;;5058127;28;20179;-85
2023/12/19 17:07:36;;;;;;;13.57;8.33;;;;;;;;;;5071080;28;20195;-85
2023/12/19 17:10:41;;;;;;;11.10;7.27;;;;;;;;;;5057761;28;20188;-86
2023/12/19 17:13:45;;;;;;;14.47;7.43;;;;;;;;;;5083286;28;20179;-84
2023/12/19 17:16:49;;;;;;;11.07;6.17;;;;;;;;;;5070196;28;20215;-85
2023/12/19 17:19:54;;;;;;;10.60;6.53;;;;;;;;;;5059062;28;20179;-86
2023/12/19 17:22:58;;;;;;;13.03;7.30;;;;;;;;;;5058114;28;20187;-84
2023/12/19 17:26:03;;;;;;;10.87;6.63;;;;;;;;;;5058790;28;20592;-87
2023/12/19 17:29:07;;;;;;;10.60;6.90;;;;;;;;;;5058737;28;20183;-86
2023/12/19 17:32:11;;;;;;;10.43;6.60;;;;;;;;;;5057538;28;20176;-85
2023/12/19 17:35:15;;;;;;;9.17;6.30;;;;;;;;;;5057661;28;20629;-86
2023/12/19 17:38:21;;;;;;;14.17;7.10;;;;;;;;;;5059267;28;20183;-85
2023/12/19 17:41:27;;;;;;;11.10;7.77;;;;;;;;;;5069081;28;20179;-85
2023/12/19 17:44:32;;;;;;;8.83;6.87;;;;;;;;;;5057808;28;20179;-86
2023/12/19 17:47:36;;;;;;;8.73;6.57;;;;;;;;;;5060348;28;20176;-85
2023/12/19 17:50:40;;;;;;;13.70;8.00;;;;;;;;;;5069067;28;20179;-85
2023/12/19 17:53:45;;;;;;;31.90;16.77;;;;;;;;;;5069643;28;20644;-86
2023/12/19 17:56:49;;;;;;;24.33;13.17;;;;;;;;;;5070289;28;20215;-85
2023/12/19 17:59:54;;;;;;;17.23;10.43;;;;;;;;;;5070009;28;20183;-86
2023/12/19 18:02:58;;;;;;;10.37;7.00;;;;;;;;;;5047687;28;20187;-86
2023/12/19 18:06:03;;;;;;;8.27;6.00;;;;;;;;;;5058027;28;20235;-85
2023/12/19 18:09:08;;;;;;;9.60;6.37;;;;;;;;;;5058586;28;20184;-86
2023/12/19 18:12:13;;;;;;;7.97;5.60;;;;;;;;;;5058724;28;20641;-86
2023/12/19 18:15:18;;;;;;;8.60;5.40;;;;;;;;;;5069452;28;20183;-85
2023/12/19 18:18:22;;;;;;;11.80;5.73;;;;;;;;;;5071983;28;20183;-85
2023/12/19 18:21:28;;;;;;;9.37;6.30;;;;;;;;;;5068049;28;20179;-86
2023/12/19 18:24:32;;;;;;;8.43;6.17;;;;;;;;;;5069954;28;20511;-85
2023/12/19 18:27:36;;;;;;;14.33;8.93;;;;;;;;;;5070029;28;20510;-84